Startpagina
METAR-TAF:

METAR-TAF

Vliegvelden :

Luchthaven Bamako

Bamako, Mali

breedte: 12-32N, lengte: 007-57W, hoogte: 380 m

Actueel weer

Dit bericht is 29 minuten geleden gemaakt, om 14:00 UTC
Wind 8 kt uit het noordwesten, variërend tussen het westen en het noorden
Temperatuur 38°C
Vochtigheid 21%
Druk 1010 hPa
Zicht 10 km of meer
Weinig wolken op 4000 ft

METAR: GABS 261400Z 32008KT 280V350 9999 FEW040 38/12 Q1010 NOSIG

Tijdstip: 14:29 (14:29 UTC)

Verwachting

Dit bericht is 9 uur en het 9 minuten geleden gemaakt, om 05:20 UTC
Verwachting geldig van 26 om 06 UTC tot 27 om 12 UTC
Wind 8 kt uit het westen
Zicht 10 km of meer
geen wolken onder 1500 m en geen cumulonimbus
Kans 40% :
Tijdelijke
van 26 om 06 UTC tot 26 om 10 UTC
Weinig wolken op 3500 ft
Weinig wolken op 4000 ft, Cumulonimbus.
onweer

TAF: GABS 260520Z 2606/2712 28008KT CAVOK PROB40 TEMPO 2606/2610 TS FEW035 FEW040CB

Waarnemingen en weersverwachtingen van meer dan 4000 vliegvelden (METAR en TAF).

De beschikbare stations zijn de gele en rode punten op de kaart.

Ga met uw muis naar het station om de naam te zien.

Klik dan om waarnemingen en weersverwachtingen te zien.

kaart wijzigen: klik op de groene knoppen met een zwart kruis om in te zoomen, op de groene knop met een streepje om uit te zoomen of op de groene pijlen voor aangrenzende kaarten.


METAR-TAF: